< < Back
Terminal Aerodrome Forecast


Current Version              Previous Versions:   1  2  3  4  5  6  7  8  9  

Terminal Aerodrome Forecast

349
FTUS42 KILM 300500
TAFILM
TAF
KILM 300520Z 3006/3106 00000KT P6SM FEW015
     FM300800 00000KT 4SM BR SCT007
     FM301300 10005KT P6SM FEW025
     FM301800 15008KT P6SM SCT040=

Latest METAR

244
SAUS70 KWBC 301000 RRE
MTRILM
METAR KILM 300953Z AUTO 03003KT 10SM SCT020 22/22 A3016 RMK AO2 SLP213
T02220217


USA.gov is the U.S. government's official web portal to all federal, state and local government web resources and services.